Weather History for Sheldon, IA

Change the Weather History Date:

Monday, February 18, 2013

  Actual Average Record
Temperature  
Mean Temperature 22 °F -  
Max Temperature 37 °F 31 °F 61 °F (1954)
Min Temperature 8 °F 13 °F -13 °F (2006)
Degree Days  
Heating Degree Days 42    
Moisture  
Dew Point 19 °F    
Average Humidity 80    
Maximum Humidity 100    
Minimum Humidity 59    
Precipitation  
Precipitation 0.00 in - - ()
Sea Level Pressure  
Sea Level Pressure 29.74 in    
Wind  
Wind Speed 19 mph (NW)    
Max Wind Speed 34 mph    
Max Gust Speed 45 mph    
Visibility 9 miles    
Events Rain , Snow    
Averages and records for this station are not official NWS values.
T = Trace of Precipitation, MM = Missing Value Source: NWS Daily Summary

Daily Weather History Graph

Daily Weather History Graph

Search for Another Location

Airport:

Trip Planner

Search our weather history database for the weather conditions in past years. The results will help you decide how hot, cold, wet, or windy it might be!

Date:

Astronomy

Feb. 18, 2013 Rise Set
Actual Time 7:16 AM CST 5:58 PM CST
Civil Twilight 6:47 AM CST 6:27 PM CST
Nautical Twilight 6:14 AM CST 7:00 PM CST
Astronomical Twilight 5:41 AM CST 7:33 PM CST
Moon 11:40 AM CST (2/18) 2:01 AM CST (2/18)
Length of Visible Light 11h 40m
Length of Day
10h 42m
First Quarter, 58% of the Moon is Illuminated
Feb 18
First Quarter
Feb 25
Full
Mar 4
Last Quarter
Mar 11
New
Mar 19
First Quarter

Hourly Weather History & Observations

Time (CST) Temp. Windchill Dew Point Humidity Pressure Visibility Wind Dir Wind Speed Gust Speed Precip Events Conditions
12:15 AM 37.4 °F 31.4 °F 32.0 °F 81% 29.54 in 10.0 mi SW 8.1 mph - N/A   Clear
12:55 AM 37.4 °F 29.8 °F 32.0 °F 81% 29.55 in 10.0 mi SW 11.5 mph - N/A   Clear
1:15 AM 35.6 °F 28.0 °F 33.8 °F 93% 29.56 in 10.0 mi West 10.4 mph - N/A   Clear
1:35 AM 35.6 °F 28.0 °F 33.8 °F 93% 29.57 in 10.0 mi WNW 10.4 mph - N/A   Clear
1:55 AM 35.6 °F 29.2 °F 33.8 °F 93% 29.57 in 10.0 mi WNW 8.1 mph 13.8 mph N/A   Clear
2:15 AM 35.6 °F 28.0 °F 33.8 °F 93% 29.58 in 10.0 mi WNW 10.4 mph - N/A   Clear
2:35 AM 35.6 °F 28.0 °F 33.8 °F 93% 29.56 in 10.0 mi NW 10.4 mph - N/A   Clear
3:15 AM 33.8 °F 25.3 °F 33.8 °F 100% 29.56 in 10.0 mi NW 11.5 mph - N/A   Clear
3:35 AM 33.8 °F 24.3 °F 33.8 °F 100% 29.56 in 10.0 mi WNW 13.8 mph - N/A   Clear
3:55 AM 33.8 °F 23.5 °F 33.8 °F 100% 29.55 in 10.0 mi NW 16.1 mph - N/A   Clear
4:15 AM 33.8 °F 24.8 °F 33.8 °F 100% 29.55 in 10.0 mi NW 12.7 mph 21.9 mph N/A   Clear
4:35 AM 33.8 °F 24.8 °F 33.8 °F 100% 29.55 in 10.0 mi NW 12.7 mph 20.7 mph N/A   Clear
4:55 AM 33.8 °F 23.9 °F 32.0 °F 93% 29.56 in 10.0 mi NW 15.0 mph - N/A   Clear
5:15 AM 33.8 °F 24.8 °F 32.0 °F 93% 29.55 in 10.0 mi NW 12.7 mph - N/A   Clear
5:35 AM 35.6 °F 25.9 °F 32.0 °F 87% 29.55 in 10.0 mi NW 16.1 mph 23.0 mph N/A   Clear
5:55 AM 35.6 °F 25.5 °F 32.0 °F 87% 29.56 in 10.0 mi NW 17.3 mph - N/A   Clear
6:15 AM 35.6 °F 24.8 °F 32.0 °F 87% 29.56 in 10.0 mi NW 19.6 mph 26.5 mph N/A   Clear
6:35 AM 35.6 °F 25.2 °F 32.0 °F 87% 29.58 in 10.0 mi NW 18.4 mph 26.5 mph N/A   Scattered Clouds
6:55 AM 35.6 °F 25.5 °F 32.0 °F 87% 29.59 in 10.0 mi NW 17.3 mph 23.0 mph N/A   Overcast
7:15 AM 35.6 °F 25.5 °F 33.8 °F 93% 29.59 in 10.0 mi NW 17.3 mph - N/A   Overcast
7:35 AM 35.6 °F 24.8 °F 32.0 °F 87% 29.61 in 10.0 mi NW 19.6 mph 26.5 mph N/A   Overcast
7:55 AM 35.6 °F 24.2 °F 32.0 °F 87% 29.61 in 10.0 mi NNW 21.9 mph 31.1 mph N/A   Overcast
8:15 AM 35.6 °F 23.7 °F 32.0 °F 87% 29.62 in 10.0 mi NW 24.2 mph 31.1 mph N/A   Overcast
8:35 AM 33.8 °F 20.5 °F 28.4 °F 81% 29.63 in 10.0 mi NW 27.6 mph 38.0 mph N/A   Overcast
8:55 AM 32.0 °F 18.6 °F 28.4 °F 87% 29.64 in 10.0 mi NW 25.3 mph 34.5 mph N/A   Overcast
9:15 AM 30.2 °F 14.9 °F 23.0 °F 75% 29.66 in 10.0 mi NNW 31.1 mph 41.4 mph N/A   Mostly Cloudy
9:35 AM 28.4 °F 12.3 °F 21.2 °F 74% 29.66 in 10.0 mi NNW 32.2 mph 44.9 mph N/A   Partly Cloudy
9:55 AM 26.6 °F 11.7 °F 23.0 °F 86% 29.69 in 10.0 mi NW 24.2 mph 39.1 mph N/A   Mostly Cloudy
10:35 AM 24.8 °F 10.0 °F 19.4 °F 80% 29.72 in 10.0 mi NW 21.9 mph 32.2 mph N/A   Overcast
10:55 AM 24.8 °F 9.3 °F 19.4 °F 80% 29.72 in 9.0 mi NW 24.2 mph 33.4 mph N/A   Light Freezing Rain
11:15 AM 24.8 °F 8.7 °F 17.6 °F 74% 29.73 in 10.0 mi NW 26.5 mph 32.2 mph N/A   Overcast
11:35 AM 24.8 °F 9.0 °F 17.6 °F 74% 29.73 in 10.0 mi NW 25.3 mph 38.0 mph N/A   Overcast
11:55 AM 24.8 °F 8.1 °F 17.6 °F 74% 29.74 in 10.0 mi NW 28.8 mph 34.5 mph N/A   Overcast
12:15 PM 24.8 °F 8.7 °F 17.6 °F 74% 29.75 in 10.0 mi NW 26.5 mph 34.5 mph N/A   Overcast
12:35 PM 24.8 °F 8.1 °F 17.6 °F 74% 29.76 in 10.0 mi NW 28.8 mph 38.0 mph N/A Rain Light Freezing Rain
12:55 PM 24.8 °F 8.4 °F 15.8 °F 69% 29.76 in 10.0 mi NNW 27.6 mph 39.1 mph N/A   Overcast
1:15 PM 24.8 °F 8.4 °F 15.8 °F 69% 29.76 in 10.0 mi NW 27.6 mph 35.7 mph N/A Rain Light Freezing Rain
1:35 PM 24.8 °F 8.4 °F 15.8 °F 69% 29.77 in 8.0 mi NW 27.6 mph 35.7 mph N/A Rain Light Freezing Rain
1:55 PM 23.0 °F 5.7 °F 14.0 °F 68% 29.78 in 10.0 mi NNW 28.8 mph 36.8 mph N/A Rain Light Freezing Rain
2:15 PM 23.0 °F 6.6 °F 14.0 °F 68% 29.79 in 9.0 mi NW 25.3 mph 34.5 mph N/A Snow Light Snow
2:35 PM 23.0 °F 5.7 °F 14.0 °F 68% 29.80 in 8.0 mi NW 28.8 mph 36.8 mph N/A Rain Light Freezing Rain
2:55 PM 23.0 °F 5.7 °F 14.0 °F 68% 29.80 in 10.0 mi NW 28.8 mph 40.3 mph N/A Rain Light Freezing Rain
3:15 PM 23.0 °F 6.6 °F 14.0 °F 68% 29.81 in 10.0 mi NW 25.3 mph 36.8 mph N/A Rain Light Freezing Rain
3:35 PM 23.0 °F 4.4 °F 10.4 °F 59% 29.81 in 10.0 mi NW 34.5 mph - N/A   Overcast
3:55 PM 23.0 °F 6.6 °F 12.2 °F 63% 29.82 in 10.0 mi NW 25.3 mph 38.0 mph N/A   Overcast
4:15 PM 21.2 °F 4.9 °F 12.2 °F 68% 29.82 in 10.0 mi NNW 23.0 mph 32.2 mph N/A   Overcast
4:35 PM 21.2 °F 2.4 °F 10.4 °F 63% 29.83 in 9.0 mi NW 32.2 mph 40.3 mph N/A Snow Light Snow
4:55 PM 19.4 °F 1.1 °F 10.4 °F 68% 29.84 in 10.0 mi NW 27.6 mph 34.5 mph N/A   Overcast
5:15 PM 19.4 °F 2.1 °F 10.4 °F 68% 29.85 in 10.0 mi NW 24.2 mph 36.8 mph N/A Rain Light Freezing Rain
5:35 PM 17.6 °F -1.0 °F 10.4 °F 73% 29.86 in 9.0 mi NW 26.5 mph 36.8 mph N/A Snow Light Snow
5:55 PM 15.8 °F -3.7 °F 6.8 °F 68% 29.87 in 10.0 mi NNW 27.6 mph 41.4 mph N/A   Mostly Cloudy
6:15 PM 15.8 °F -5.2 °F 10.4 °F 79% 29.88 in 2.0 mi NW 33.4 mph 43.7 mph N/A Snow Light Snow
6:35 PM 14.0 °F -5.5 °F 8.6 °F 79% 29.89 in 7.0 mi NW 25.3 mph 36.8 mph N/A Snow Light Snow
6:55 PM 14.0 °F -5.8 °F 8.6 °F 79% 29.90 in 3.0 mi NW 26.5 mph 36.8 mph N/A Snow Light Snow
7:15 PM 15.8 °F -3.4 °F 8.6 °F 73% 29.89 in 4.0 mi NW 26.5 mph 32.2 mph N/A Snow Light Snow
7:35 PM 14.0 °F -6.5 °F 8.6 °F 79% 29.90 in 5.0 mi NW 28.8 mph 38.0 mph N/A Snow Light Snow
7:55 PM 14.0 °F -6.8 °F 8.6 °F 79% 29.89 in 4.0 mi NW 29.9 mph 36.8 mph N/A Snow Light Snow
8:15 PM 14.0 °F -4.7 °F 5.0 °F 67% 29.90 in 9.0 mi NW 23.0 mph 36.8 mph N/A   Overcast
8:35 PM 12.2 °F -8.9 °F 5.0 °F 73% 29.91 in 10.0 mi NW 28.8 mph 38.0 mph N/A   Overcast
8:55 PM 12.2 °F -8.2 °F 5.0 °F 73% 29.91 in 10.0 mi NW 26.5 mph 38.0 mph N/A   Overcast
9:15 PM 12.2 °F -6.3 °F 5.0 °F 73% 29.92 in 10.0 mi NW 20.7 mph 34.5 mph N/A   Light Freezing Rain
9:35 PM 10.4 °F -10.3 °F 3.2 °F 73% 29.92 in 10.0 mi NNW 25.3 mph 42.6 mph N/A   Overcast
9:55 PM 10.4 °F -10.7 °F 6.8 °F 85% 29.93 in 4.0 mi NW 26.5 mph 32.2 mph N/A Snow Light Snow
10:15 PM 10.4 °F -10.3 °F 5.0 °F 79% 29.94 in 8.0 mi NW 25.3 mph 34.5 mph N/A Rain Light Freezing Rain
10:35 PM 10.4 °F -9.1 °F 5.0 °F 79% 29.95 in 9.0 mi NW 21.9 mph 34.5 mph N/A   Light Freezing Rain
10:55 PM 10.4 °F -11.4 °F 3.2 °F 73% 29.96 in 10.0 mi NW 28.8 mph 36.8 mph N/A   Overcast
11:15 PM 10.4 °F -9.9 °F 3.2 °F 73% 29.96 in 8.0 mi NW 24.2 mph 32.2 mph N/A   Light Freezing Rain
11:35 PM 8.6 °F -12.3 °F 1.4 °F 73% 29.97 in 10.0 mi NW 24.2 mph 32.2 mph N/A   Overcast
11:55 PM 8.6 °F -10.5 °F 5.0 °F 85% 29.98 in 5.0 mi NW 19.6 mph 25.3 mph N/A Snow Light Snow